TimePDT,TemperatureF,Dew PointF,Humidity,Sea Level PressureIn,VisibilityMPH,Wind Direction,Wind SpeedMPH,Gust SpeedMPH,PrecipitationIn,Events,Conditions,WindDirDegrees,DateUTC
12:15 AM,44.6,23.0,43,30.22,10.0,Calm,Calm,-,N/A,,Overcast,0,2013-08-02 07:15:00
12:35 AM,46.4,23.0,40,30.22,10.0,Calm,Calm,-,N/A,,Overcast,0,2013-08-02 07:35:00
12:55 AM,46.4,23.0,40,30.22,10.0,North,3.5,-,N/A,,Overcast,360,2013-08-02 07:55:00
1:15 AM,48.2,24.8,40,30.21,10.0,WSW,5.8,-,N/A,,Overcast,250,2013-08-02 08:15:00
1:35 AM,48.2,23.0,37,30.21,10.0,Calm,Calm,-,N/A,,Scattered Clouds,0,2013-08-02 08:35:00
1:55 AM,44.6,23.0,43,30.21,10.0,NNE,3.5,-,N/A,,Scattered Clouds,20,2013-08-02 08:55:00
2:15 AM,44.6,23.0,43,30.21,10.0,North,3.5,-,N/A,,Scattered Clouds,350,2013-08-02 09:15:00
2:35 AM,46.4,23.0,40,30.20,7.0,West,9.2,-,N/A,,Clear,280,2013-08-02 09:35:00
2:55 AM,46.4,23.0,40,30.20,7.0,Calm,Calm,-,N/A,,Clear,0,2013-08-02 09:55:00
3:35 AM,46.4,23.0,40,30.20,7.0,NW,4.6,-,N/A,,Clear,320,2013-08-02 10:35:00
3:55 AM,44.6,23.0,43,30.19,7.0,NNE,5.8,-,N/A,,Clear,20,2013-08-02 10:55:00
4:15 AM,44.6,24.8,46,30.19,7.0,Calm,Calm,-,N/A,,Scattered Clouds,0,2013-08-02 11:15:00
4:35 AM,46.4,23.0,40,30.20,7.0,Calm,Calm,-,N/A,,Clear,0,2013-08-02 11:35:00
4:55 AM,44.6,23.0,43,30.20,7.0,Calm,Calm,-,N/A,,Clear,0,2013-08-02 11:55:00
5:35 AM,41.0,23.0,49,30.20,10.0,NW,3.5,-,N/A,,Clear,320,2013-08-02 12:35:00
5:55 AM,42.8,23.0,46,30.20,10.0,NNW,4.6,-,N/A,,Clear,340,2013-08-02 12:55:00
6:15 AM,41.0,23.0,49,30.20,7.0,North,4.6,-,N/A,,Clear,360,2013-08-02 13:15:00
6:35 AM,39.2,23.0,52,30.20,7.0,North,4.6,-,N/A,,Clear,350,2013-08-02 13:35:00
6:55 AM,41.0,23.0,49,30.20,7.0,NNW,5.8,-,N/A,,Clear,330,2013-08-02 13:55:00
7:15 AM,44.6,21.2,39,30.20,7.0,North,3.5,-,N/A,,Clear,10,2013-08-02 14:15:00
7:35 AM,48.2,21.2,34,30.20,10.0,Calm,Calm,-,N/A,,Clear,0,2013-08-02 14:35:00
7:55 AM,51.8,23.0,33,30.21,7.0,Calm,Calm,-,N/A,,Clear,0,2013-08-02 14:55:00
8:15 AM,55.4,24.8,31,30.21,10.0,SE,3.5,-,N/A,,Clear,130,2013-08-02 15:15:00
8:35 AM,57.2,24.8,29,30.22,10.0,SSE,3.5,-,N/A,,Clear,150,2013-08-02 15:35:00
8:55 AM,59.0,21.2,23,30.22,10.0,Calm,Calm,-,N/A,,Clear,0,2013-08-02 15:55:00
9:15 AM,62.6,21.2,20,30.21,10.0,Calm,Calm,-,N/A,,Clear,0,2013-08-02 16:15:00
9:35 AM,66.2,21.2,18,30.21,10.0,SE,3.5,-,N/A,,Clear,130,2013-08-02 16:35:00
9:55 AM,68.0,24.8,20,30.21,10.0,SE,3.5,-,N/A,,Clear,140,2013-08-02 16:55:00
10:15 AM,69.8,21.2,16,30.20,10.0,SSE,4.6,-,N/A,,Clear,160,2013-08-02 17:15:00
10:35 AM,71.6,17.6,13,30.20,10.0,SE,4.6,-,N/A,,Clear,130,2013-08-02 17:35:00
10:55 AM,73.4,19.4,13,30.20,10.0,ESE,8.1,-,N/A,,Clear,110,2013-08-02 17:55:00
11:15 AM,73.4,19.4,13,30.20,10.0,East,8.1,-,N/A,,Clear,100,2013-08-02 18:15:00
11:35 AM,75.2,19.4,12,30.19,10.0,East,6.9,-,N/A,,Clear,90,2013-08-02 18:35:00
11:55 AM,75.2,17.6,11,30.18,10.0,SE,5.8,-,N/A,,Clear,130,2013-08-02 18:55:00
12:15 PM,77.0,17.6,11,30.18,10.0,SE,6.9,-,N/A,,Clear,130,2013-08-02 19:15:00
12:35 PM,77.0,17.6,11,30.17,10.0,ESE,4.6,-,N/A,,Clear,120,2013-08-02 19:35:00
12:55 PM,78.8,19.4,11,30.16,10.0,ESE,9.2,-,N/A,,Clear,120,2013-08-02 19:55:00
1:15 PM,80.6,19.4,10,30.16,10.0,ESE,8.1,16.1,N/A,,Clear,120,2013-08-02 20:15:00
1:35 PM,80.6,17.6,10,30.16,10.0,East,6.9,-,N/A,,Clear,100,2013-08-02 20:35:00
1:55 PM,80.6,17.6,10,30.15,10.0,East,9.2,16.1,N/A,,Clear,100,2013-08-02 20:55:00
2:15 PM,82.4,17.6,9,30.15,10.0,SSE,5.8,9.2,N/A,,Clear,150,2013-08-02 21:15:00
2:35 PM,82.4,19.4,10,30.14,10.0,ESE,11.5,-,N/A,,Clear,120,2013-08-02 21:35:00
3:15 PM,82.4,19.4,10,30.15,10.0,ESE,4.6,23.0,N/A,,Scattered Clouds,110,2013-08-02 22:15:00
3:35 PM,80.6,19.4,10,30.14,5.0,WNW,12.7,21.9,N/A,,Haze,300,2013-08-02 22:35:00
3:55 PM,80.6,19.4,10,30.14,4.0,West,13.8,26.5,N/A,,Haze,270,2013-08-02 22:55:00
4:15 PM,78.8,19.4,11,30.14,5.0,WNW,18.4,29.9,N/A,,Haze,290,2013-08-02 23:15:00
4:35 PM,78.8,19.4,11,30.14,5.0,WNW,21.9,34.5,N/A,,Haze,300,2013-08-02 23:35:00
4:55 PM,77.0,21.2,12,30.15,7.0,WNW,19.6,29.9,N/A,,Overcast,290,2013-08-02 23:55:00
5:15 PM,77.0,21.2,12,30.15,7.0,WNW,23.0,29.9,N/A,,Overcast,290,2013-08-03 00:15:00
5:35 PM,77.0,23.0,13,30.15,7.0,West,17.3,29.9,N/A,,Overcast,280,2013-08-03 00:35:00
5:55 PM,75.2,23.0,14,30.15,7.0,WNW,20.7,31.1,N/A,,Overcast,290,2013-08-03 00:55:00
6:15 PM,73.4,23.0,15,30.15,10.0,WNW,24.2,29.9,N/A,,Overcast,290,2013-08-03 01:15:00
6:35 PM,73.4,23.0,15,30.15,10.0,WNW,23.0,29.9,N/A,,Overcast,290,2013-08-03 01:35:00
6:55 PM,71.6,23.0,16,30.15,10.0,WNW,20.7,31.1,N/A,,Overcast,290,2013-08-03 01:55:00
7:15 PM,69.8,23.0,17,30.15,10.0,NW,19.6,31.1,N/A,,Overcast,310,2013-08-03 02:15:00
7:35 PM,69.8,23.0,17,30.15,7.0,WNW,11.5,31.1,N/A,,Overcast,290,2013-08-03 02:35:00
7:55 PM,68.0,21.2,17,30.16,5.0,NW,11.5,19.6,N/A,,Haze,320,2013-08-03 02:55:00
8:15 PM,66.2,21.2,18,30.16,7.0,NNE,4.6,-,N/A,,Overcast,30,2013-08-03 03:15:00
8:35 PM,62.6,23.0,22,30.17,7.0,Calm,Calm,-,N/A,,Overcast,0,2013-08-03 03:35:00
8:55 PM,64.4,26.6,24,30.18,7.0,Calm,Calm,-,N/A,,Overcast,0,2013-08-03 03:55:00
9:15 PM,57.2,23.0,27,30.19,7.0,South,3.5,-,N/A,,Overcast,170,2013-08-03 04:15:00
9:35 PM,59.0,23.0,25,30.20,7.0,Calm,Calm,-,N/A,,Overcast,0,2013-08-03 04:35:00
10:55 PM,51.8,23.0,33,30.21,7.0,Calm,Calm,-,N/A,,Overcast,0,2013-08-03 05:55:00
11:15 PM,51.8,24.8,35,30.21,7.0,Calm,Calm,-,N/A,,Scattered Clouds,0,2013-08-03 06:15:00
11:35 PM,57.2,24.8,29,30.22,7.0,West,9.2,-,N/A,,Clear,270,2013-08-03 06:35:00
11:55 PM,55.4,24.8,31,30.22,7.0,West,10.4,17.3,N/A,,Clear,280,2013-08-03 06:55:00